sensor_id;sensor_type;location;lat;lon;timestamp;P1;durP1;ratioP1;P2;durP2;ratioP2
37205;SDS011;23099;42.636;23.198;2023-01-19T00:00:24;24.55;;;3.33;;
37205;SDS011;23099;42.636;23.198;2023-01-19T00:02:51;39.05;;;2.72;;
37205;SDS011;23099;42.636;23.198;2023-01-19T00:05:19;23.77;;;3.63;;
37205;SDS011;23099;42.636;23.198;2023-01-19T00:07:46;32.15;;;3.10;;
37205;SDS011;23099;42.636;23.198;2023-01-19T00:10:13;28.65;;;3.30;;
37205;SDS011;23099;42.636;23.198;2023-01-19T00:12:41;24.45;;;1.95;;
37205;SDS011;23099;42.636;23.198;2023-01-19T00:15:08;39.45;;;3.30;;
37205;SDS011;23099;42.636;23.198;2023-01-19T00:17:36;32.22;;;3.92;;
37205;SDS011;23099;42.636;23.198;2023-01-19T00:20:05;25.83;;;2.15;;
37205;SDS011;23099;42.636;23.198;2023-01-19T00:22:33;20.45;;;2.35;;
37205;SDS011;23099;42.636;23.198;2023-01-19T00:24:59;29.63;;;3.10;;
37205;SDS011;23099;42.636;23.198;2023-01-19T00:27:26;22.75;;;2.47;;
37205;SDS011;23099;42.636;23.198;2023-01-19T00:29:55;33.13;;;4.05;;
37205;SDS011;23099;42.636;23.198;2023-01-19T00:32:22;33.40;;;2.78;;
37205;SDS011;23099;42.636;23.198;2023-01-19T00:34:49;32.30;;;3.38;;
37205;SDS011;23099;42.636;23.198;2023-01-19T00:37:16;29.48;;;3.67;;
37205;SDS011;23099;42.636;23.198;2023-01-19T00:39:43;31.90;;;3.42;;
37205;SDS011;23099;42.636;23.198;2023-01-19T00:42:10;26.27;;;2.95;;
37205;SDS011;23099;42.636;23.198;2023-01-19T00:44:56;22.10;;;3.10;;
37205;SDS011;23099;42.636;23.198;2023-01-19T00:47:23;32.05;;;2.53;;
37205;SDS011;23099;42.636;23.198;2023-01-19T00:49:50;30.23;;;2.40;;
37205;SDS011;23099;42.636;23.198;2023-01-19T00:52:16;36.00;;;4.15;;
37205;SDS011;23099;42.636;23.198;2023-01-19T00:54:43;20.50;;;2.45;;
37205;SDS011;23099;42.636;23.198;2023-01-19T00:57:10;32.75;;;2.67;;
37205;SDS011;23099;42.636;23.198;2023-01-19T00:59:37;26.23;;;3.03;;
37205;SDS011;23099;42.636;23.198;2023-01-19T01:02:05;25.85;;;2.80;;
37205;SDS011;23099;42.636;23.198;2023-01-19T01:04:31;20.50;;;2.15;;
37205;SDS011;23099;42.636;23.198;2023-01-19T01:06:58;37.38;;;4.18;;
37205;SDS011;23099;42.636;23.198;2023-01-19T01:09:25;36.92;;;3.90;;
37205;SDS011;23099;42.636;23.198;2023-01-19T01:11:52;32.53;;;2.65;;
37205;SDS011;23099;42.636;23.198;2023-01-19T01:14:19;17.88;;;2.65;;
37205;SDS011;23099;42.636;23.198;2023-01-19T01:16:45;22.17;;;2.08;;
37205;SDS011;23099;42.636;23.198;2023-01-19T01:19:13;34.70;;;3.88;;
37205;SDS011;23099;42.636;23.198;2023-01-19T01:21:40;28.25;;;2.03;;
37205;SDS011;23099;42.636;23.198;2023-01-19T01:24:08;28.38;;;2.97;;
37205;SDS011;23099;42.636;23.198;2023-01-19T01:26:35;25.48;;;2.85;;
37205;SDS011;23099;42.636;23.198;2023-01-19T01:29:01;33.60;;;3.30;;
37205;SDS011;23099;42.636;23.198;2023-01-19T01:31:30;42.63;;;3.63;;
37205;SDS011;23099;42.636;23.198;2023-01-19T01:33:57;30.90;;;2.97;;
37205;SDS011;23099;42.636;23.198;2023-01-19T01:36:25;40.15;;;3.60;;
37205;SDS011;23099;42.636;23.198;2023-01-19T01:38:53;27.67;;;2.45;;
37205;SDS011;23099;42.636;23.198;2023-01-19T01:41:19;28.38;;;2.53;;
37205;SDS011;23099;42.636;23.198;2023-01-19T01:43:47;34.13;;;2.70;;
37205;SDS011;23099;42.636;23.198;2023-01-19T01:46:16;29.08;;;2.30;;
37205;SDS011;23099;42.636;23.198;2023-01-19T01:48:45;36.22;;;4.35;;
37205;SDS011;23099;42.636;23.198;2023-01-19T01:51:18;33.90;;;3.47;;
37205;SDS011;23099;42.636;23.198;2023-01-19T01:53:53;27.83;;;2.55;;
37205;SDS011;23099;42.636;23.198;2023-01-19T01:56:27;20.52;;;3.10;;
37205;SDS011;23099;42.636;23.198;2023-01-19T01:58:59;12.02;;;1.52;;
37205;SDS011;23099;42.636;23.198;2023-01-19T02:01:28;19.95;;;2.40;;
37205;SDS011;23099;42.636;23.198;2023-01-19T02:04:12;20.10;;;2.20;;
37205;SDS011;23099;42.636;23.198;2023-01-19T02:06:39;22.88;;;3.95;;
37205;SDS011;23099;42.636;23.198;2023-01-19T02:09:25;26.33;;;2.63;;
37205;SDS011;23099;42.636;23.198;2023-01-19T02:12:12;36.47;;;3.25;;
37205;SDS011;23099;42.636;23.198;2023-01-19T02:14:57;25.15;;;2.67;;
37205;SDS011;23099;42.636;23.198;2023-01-19T02:17:23;27.77;;;2.88;;
37205;SDS011;23099;42.636;23.198;2023-01-19T02:19:50;21.80;;;2.33;;
37205;SDS011;23099;42.636;23.198;2023-01-19T02:22:19;18.25;;;2.10;;
37205;SDS011;23099;42.636;23.198;2023-01-19T02:24:52;31.70;;;4.57;;
37205;SDS011;23099;42.636;23.198;2023-01-19T02:27:19;17.88;;;1.70;;
37205;SDS011;23099;42.636;23.198;2023-01-19T02:29:46;19.80;;;2.20;;
37205;SDS011;23099;42.636;23.198;2023-01-19T02:32:13;21.33;;;2.00;;
37205;SDS011;23099;42.636;23.198;2023-01-19T02:34:40;17.08;;;1.80;;
37205;SDS011;23099;42.636;23.198;2023-01-19T02:37:07;19.63;;;2.03;;
37205;SDS011;23099;42.636;23.198;2023-01-19T02:39:37;23.30;;;2.15;;
37205;SDS011;23099;42.636;23.198;2023-01-19T02:42:08;15.63;;;1.27;;
37205;SDS011;23099;42.636;23.198;2023-01-19T02:44:39;27.58;;;3.05;;
37205;SDS011;23099;42.636;23.198;2023-01-19T02:47:08;25.42;;;2.08;;
37205;SDS011;23099;42.636;23.198;2023-01-19T02:49:35;18.95;;;1.63;;
37205;SDS011;23099;42.636;23.198;2023-01-19T02:52:01;25.70;;;2.25;;
37205;SDS011;23099;42.636;23.198;2023-01-19T02:54:35;23.88;;;2.10;;
37205;SDS011;23099;42.636;23.198;2023-01-19T02:57:15;23.85;;;1.98;;
37205;SDS011;23099;42.636;23.198;2023-01-19T03:00:01;22.23;;;3.00;;
37205;SDS011;23099;42.636;23.198;2023-01-19T03:02:40;27.98;;;3.05;;
37205;SDS011;23099;42.636;23.198;2023-01-19T03:07:47;29.00;;;2.42;;
37205;SDS011;23099;42.636;23.198;2023-01-19T03:10:22;16.48;;;2.63;;
37205;SDS011;23099;42.636;23.198;2023-01-19T03:12:58;22.33;;;3.15;;
37205;SDS011;23099;42.636;23.198;2023-01-19T03:15:31;22.45;;;1.42;;
37205;SDS011;23099;42.636;23.198;2023-01-19T03:18:07;25.50;;;2.55;;
37205;SDS011;23099;42.636;23.198;2023-01-19T03:20:36;18.95;;;1.63;;
37205;SDS011;23099;42.636;23.198;2023-01-19T03:23:06;26.10;;;2.10;;
37205;SDS011;23099;42.636;23.198;2023-01-19T03:25:38;26.00;;;3.35;;
37205;SDS011;23099;42.636;23.198;2023-01-19T03:28:10;24.85;;;2.28;;
37205;SDS011;23099;42.636;23.198;2023-01-19T03:30:41;23.08;;;1.85;;
37205;SDS011;23099;42.636;23.198;2023-01-19T03:33:11;22.02;;;2.55;;
37205;SDS011;23099;42.636;23.198;2023-01-19T03:35:43;24.17;;;1.52;;
37205;SDS011;23099;42.636;23.198;2023-01-19T03:38:13;18.17;;;1.45;;
37205;SDS011;23099;42.636;23.198;2023-01-19T03:40:42;20.17;;;1.90;;
37205;SDS011;23099;42.636;23.198;2023-01-19T03:43:12;20.95;;;2.08;;
37205;SDS011;23099;42.636;23.198;2023-01-19T03:45:42;23.15;;;1.73;;
37205;SDS011;23099;42.636;23.198;2023-01-19T03:48:10;23.97;;;2.73;;
37205;SDS011;23099;42.636;23.198;2023-01-19T03:50:37;25.95;;;2.33;;
37205;SDS011;23099;42.636;23.198;2023-01-19T03:53:05;17.45;;;2.58;;
37205;SDS011;23099;42.636;23.198;2023-01-19T03:55:34;30.35;;;3.67;;
37205;SDS011;23099;42.636;23.198;2023-01-19T03:58:03;21.25;;;2.50;;
37205;SDS011;23099;42.636;23.198;2023-01-19T04:00:31;31.45;;;2.65;;
37205;SDS011;23099;42.636;23.198;2023-01-19T04:02:58;16.20;;;1.70;;
37205;SDS011;23099;42.636;23.198;2023-01-19T04:05:25;11.07;;;1.80;;
37205;SDS011;23099;42.636;23.198;2023-01-19T04:07:52;23.83;;;2.25;;
37205;SDS011;23099;42.636;23.198;2023-01-19T04:10:19;31.02;;;2.22;;
37205;SDS011;23099;42.636;23.198;2023-01-19T04:12:46;27.25;;;3.53;;
37205;SDS011;23099;42.636;23.198;2023-01-19T04:15:13;33.95;;;4.35;;
37205;SDS011;23099;42.636;23.198;2023-01-19T04:17:41;26.15;;;2.42;;
37205;SDS011;23099;42.636;23.198;2023-01-19T04:20:08;29.30;;;3.08;;
37205;SDS011;23099;42.636;23.198;2023-01-19T04:22:35;31.15;;;2.88;;
37205;SDS011;23099;42.636;23.198;2023-01-19T04:25:04;28.45;;;4.03;;
37205;SDS011;23099;42.636;23.198;2023-01-19T04:27:31;30.73;;;3.35;;
37205;SDS011;23099;42.636;23.198;2023-01-19T04:29:58;30.52;;;3.95;;
37205;SDS011;23099;42.636;23.198;2023-01-19T04:32:25;30.65;;;3.33;;
37205;SDS011;23099;42.636;23.198;2023-01-19T04:34:53;28.00;;;3.45;;
37205;SDS011;23099;42.636;23.198;2023-01-19T04:37:20;26.65;;;3.10;;
37205;SDS011;23099;42.636;23.198;2023-01-19T04:39:47;24.17;;;5.05;;
37205;SDS011;23099;42.636;23.198;2023-01-19T04:42:13;37.83;;;3.72;;
37205;SDS011;23099;42.636;23.198;2023-01-19T04:44:40;33.80;;;3.55;;
37205;SDS011;23099;42.636;23.198;2023-01-19T04:47:07;41.25;;;4.35;;
37205;SDS011;23099;42.636;23.198;2023-01-19T04:49:34;26.52;;;3.30;;
37205;SDS011;23099;42.636;23.198;2023-01-19T04:52:03;29.65;;;3.03;;
37205;SDS011;23099;42.636;23.198;2023-01-19T04:56:56;20.42;;;2.78;;
37205;SDS011;23099;42.636;23.198;2023-01-19T04:59:23;29.38;;;3.55;;
37205;SDS011;23099;42.636;23.198;2023-01-19T05:01:50;24.98;;;2.88;;
37205;SDS011;23099;42.636;23.198;2023-01-19T05:04:17;26.58;;;4.22;;
37205;SDS011;23099;42.636;23.198;2023-01-19T05:06:43;35.20;;;3.78;;
37205;SDS011;23099;42.636;23.198;2023-01-19T05:09:11;28.02;;;2.53;;
37205;SDS011;23099;42.636;23.198;2023-01-19T05:11:39;25.13;;;2.05;;
37205;SDS011;23099;42.636;23.198;2023-01-19T05:14:06;32.38;;;2.90;;
37205;SDS011;23099;42.636;23.198;2023-01-19T05:16:33;27.38;;;3.30;;
37205;SDS011;23099;42.636;23.198;2023-01-19T05:19:00;26.92;;;2.55;;
37205;SDS011;23099;42.636;23.198;2023-01-19T05:21:26;23.02;;;2.45;;
37205;SDS011;23099;42.636;23.198;2023-01-19T05:23:53;29.40;;;3.42;;
37205;SDS011;23099;42.636;23.198;2023-01-19T05:26:21;25.65;;;2.30;;
37205;SDS011;23099;42.636;23.198;2023-01-19T05:28:48;18.35;;;1.98;;
37205;SDS011;23099;42.636;23.198;2023-01-19T05:31:15;28.30;;;2.75;;
37205;SDS011;23099;42.636;23.198;2023-01-19T05:33:41;27.40;;;3.65;;
37205;SDS011;23099;42.636;23.198;2023-01-19T05:36:08;22.15;;;2.38;;
37205;SDS011;23099;42.636;23.198;2023-01-19T05:38:35;22.55;;;2.22;;
37205;SDS011;23099;42.636;23.198;2023-01-19T05:41:02;25.05;;;2.17;;
37205;SDS011;23099;42.636;23.198;2023-01-19T05:43:30;19.77;;;3.15;;
37205;SDS011;23099;42.636;23.198;2023-01-19T05:45:57;29.85;;;3.05;;
37205;SDS011;23099;42.636;23.198;2023-01-19T05:48:23;19.50;;;2.25;;
37205;SDS011;23099;42.636;23.198;2023-01-19T05:50:50;25.48;;;3.05;;
37205;SDS011;23099;42.636;23.198;2023-01-19T05:53:21;34.08;;;3.05;;
37205;SDS011;23099;42.636;23.198;2023-01-19T05:55:48;23.63;;;2.75;;
37205;SDS011;23099;42.636;23.198;2023-01-19T05:58:15;23.23;;;3.38;;
37205;SDS011;23099;42.636;23.198;2023-01-19T06:00:43;25.55;;;3.80;;
37205;SDS011;23099;42.636;23.198;2023-01-19T06:03:09;26.52;;;3.08;;
37205;SDS011;23099;42.636;23.198;2023-01-19T06:05:36;29.75;;;4.45;;
37205;SDS011;23099;42.636;23.198;2023-01-19T06:08:03;45.53;;;5.05;;
37205;SDS011;23099;42.636;23.198;2023-01-19T06:10:30;36.15;;;5.60;;
37205;SDS011;23099;42.636;23.198;2023-01-19T06:12:57;34.25;;;5.15;;
37205;SDS011;23099;42.636;23.198;2023-01-19T06:15:24;43.28;;;4.53;;
37205;SDS011;23099;42.636;23.198;2023-01-19T06:17:52;27.02;;;4.45;;
37205;SDS011;23099;42.636;23.198;2023-01-19T06:20:19;30.23;;;3.85;;
37205;SDS011;23099;42.636;23.198;2023-01-19T06:22:45;29.13;;;3.25;;
37205;SDS011;23099;42.636;23.198;2023-01-19T06:25:12;34.15;;;3.33;;
37205;SDS011;23099;42.636;23.198;2023-01-19T06:27:42;31.23;;;3.95;;
37205;SDS011;23099;42.636;23.198;2023-01-19T06:30:09;36.92;;;4.65;;
37205;SDS011;23099;42.636;23.198;2023-01-19T06:32:37;25.25;;;2.72;;
37205;SDS011;23099;42.636;23.198;2023-01-19T06:35:05;38.75;;;4.88;;
37205;SDS011;23099;42.636;23.198;2023-01-19T06:37:33;33.97;;;7.53;;
37205;SDS011;23099;42.636;23.198;2023-01-19T06:40:00;36.38;;;5.28;;
37205;SDS011;23099;42.636;23.198;2023-01-19T06:42:26;27.27;;;4.20;;
37205;SDS011;23099;42.636;23.198;2023-01-19T06:44:53;28.25;;;3.70;;
37205;SDS011;23099;42.636;23.198;2023-01-19T06:47:20;39.47;;;4.32;;
37205;SDS011;23099;42.636;23.198;2023-01-19T06:49:46;43.20;;;4.43;;
37205;SDS011;23099;42.636;23.198;2023-01-19T06:52:14;25.92;;;6.25;;
37205;SDS011;23099;42.636;23.198;2023-01-19T06:54:42;33.50;;;4.95;;
37205;SDS011;23099;42.636;23.198;2023-01-19T06:57:09;35.90;;;4.63;;
37205;SDS011;23099;42.636;23.198;2023-01-19T06:59:35;29.73;;;3.97;;
37205;SDS011;23099;42.636;23.198;2023-01-19T07:02:02;35.13;;;4.72;;
37205;SDS011;23099;42.636;23.198;2023-01-19T07:04:29;39.45;;;5.03;;
37205;SDS011;23099;42.636;23.198;2023-01-19T07:06:56;33.55;;;4.63;;
37205;SDS011;23099;42.636;23.198;2023-01-19T07:09:24;39.75;;;3.50;;
37205;SDS011;23099;42.636;23.198;2023-01-19T07:11:52;35.35;;;3.67;;
37205;SDS011;23099;42.636;23.198;2023-01-19T07:14:20;31.55;;;4.07;;
37205;SDS011;23099;42.636;23.198;2023-01-19T07:16:46;36.13;;;4.68;;
37205;SDS011;23099;42.636;23.198;2023-01-19T07:19:13;47.97;;;4.68;;
37205;SDS011;23099;42.636;23.198;2023-01-19T07:21:39;42.75;;;4.30;;
37205;SDS011;23099;42.636;23.198;2023-01-19T07:24:06;41.90;;;4.57;;
37205;SDS011;23099;42.636;23.198;2023-01-19T07:26:34;31.77;;;4.75;;
37205;SDS011;23099;42.636;23.198;2023-01-19T07:29:01;40.00;;;3.83;;
37205;SDS011;23099;42.636;23.198;2023-01-19T07:31:28;33.60;;;4.47;;
37205;SDS011;23099;42.636;23.198;2023-01-19T07:33:54;36.22;;;3.80;;
37205;SDS011;23099;42.636;23.198;2023-01-19T07:36:22;46.50;;;4.15;;
37205;SDS011;23099;42.636;23.198;2023-01-19T07:38:48;33.40;;;4.70;;
37205;SDS011;23099;42.636;23.198;2023-01-19T07:41:15;43.25;;;4.72;;
37205;SDS011;23099;42.636;23.198;2023-01-19T07:43:43;51.38;;;5.95;;
37205;SDS011;23099;42.636;23.198;2023-01-19T07:46:10;42.75;;;5.65;;
37205;SDS011;23099;42.636;23.198;2023-01-19T07:48:36;41.42;;;4.68;;
37205;SDS011;23099;42.636;23.198;2023-01-19T07:51:04;40.40;;;4.85;;
37205;SDS011;23099;42.636;23.198;2023-01-19T07:53:32;45.55;;;6.65;;
37205;SDS011;23099;42.636;23.198;2023-01-19T07:55:59;36.53;;;4.55;;
37205;SDS011;23099;42.636;23.198;2023-01-19T07:58:25;41.92;;;6.15;;
37205;SDS011;23099;42.636;23.198;2023-01-19T08:00:54;44.42;;;4.60;;
37205;SDS011;23099;42.636;23.198;2023-01-19T08:03:20;32.42;;;4.45;;
37205;SDS011;23099;42.636;23.198;2023-01-19T08:05:48;35.53;;;3.78;;
37205;SDS011;23099;42.636;23.198;2023-01-19T08:08:16;23.55;;;3.60;;
37205;SDS011;23099;42.636;23.198;2023-01-19T08:10:43;41.40;;;5.28;;
37205;SDS011;23099;42.636;23.198;2023-01-19T08:13:10;43.85;;;4.50;;
37205;SDS011;23099;42.636;23.198;2023-01-19T08:15:37;33.15;;;2.97;;
37205;SDS011;23099;42.636;23.198;2023-01-19T08:18:05;41.85;;;5.18;;
37205;SDS011;23099;42.636;23.198;2023-01-19T08:20:33;30.17;;;3.58;;
37205;SDS011;23099;42.636;23.198;2023-01-19T08:23:01;48.40;;;5.90;;
37205;SDS011;23099;42.636;23.198;2023-01-19T08:25:30;29.80;;;3.75;;
37205;SDS011;23099;42.636;23.198;2023-01-19T08:27:58;30.10;;;4.25;;
37205;SDS011;23099;42.636;23.198;2023-01-19T08:30:25;48.03;;;6.53;;
37205;SDS011;23099;42.636;23.198;2023-01-19T08:32:52;45.83;;;5.00;;
37205;SDS011;23099;42.636;23.198;2023-01-19T08:35:23;42.80;;;5.72;;
37205;SDS011;23099;42.636;23.198;2023-01-19T08:37:50;39.65;;;4.88;;
37205;SDS011;23099;42.636;23.198;2023-01-19T08:40:16;37.72;;;3.75;;
37205;SDS011;23099;42.636;23.198;2023-01-19T08:42:43;50.88;;;5.35;;
37205;SDS011;23099;42.636;23.198;2023-01-19T08:45:10;34.03;;;4.78;;
37205;SDS011;23099;42.636;23.198;2023-01-19T08:47:37;29.80;;;3.75;;
37205;SDS011;23099;42.636;23.198;2023-01-19T08:50:04;39.22;;;4.25;;
37205;SDS011;23099;42.636;23.198;2023-01-19T08:52:32;47.60;;;5.00;;
37205;SDS011;23099;42.636;23.198;2023-01-19T08:54:59;30.02;;;4.68;;
37205;SDS011;23099;42.636;23.198;2023-01-19T08:57:26;34.30;;;4.47;;
37205;SDS011;23099;42.636;23.198;2023-01-19T08:59:53;27.30;;;3.60;;
37205;SDS011;23099;42.636;23.198;2023-01-19T09:02:19;40.42;;;4.15;;
37205;SDS011;23099;42.636;23.198;2023-01-19T09:04:46;38.28;;;4.70;;
37205;SDS011;23099;42.636;23.198;2023-01-19T09:07:13;38.97;;;4.10;;
37205;SDS011;23099;42.636;23.198;2023-01-19T09:09:42;29.38;;;4.32;;
37205;SDS011;23099;42.636;23.198;2023-01-19T09:12:09;31.90;;;3.83;;
37205;SDS011;23099;42.636;23.198;2023-01-19T09:14:36;31.52;;;4.40;;
37205;SDS011;23099;42.636;23.198;2023-01-19T09:17:03;31.48;;;3.38;;
37205;SDS011;23099;42.636;23.198;2023-01-19T09:19:30;28.02;;;4.38;;
37205;SDS011;23099;42.636;23.198;2023-01-19T09:21:57;37.03;;;4.70;;
37205;SDS011;23099;42.636;23.198;2023-01-19T09:24:24;32.80;;;3.30;;
37205;SDS011;23099;42.636;23.198;2023-01-19T09:26:52;32.50;;;2.55;;
37205;SDS011;23099;42.636;23.198;2023-01-19T09:29:19;30.55;;;2.92;;
37205;SDS011;23099;42.636;23.198;2023-01-19T09:31:46;24.52;;;3.85;;
37205;SDS011;23099;42.636;23.198;2023-01-19T09:34:13;30.67;;;3.42;;
37205;SDS011;23099;42.636;23.198;2023-01-19T09:36:40;26.20;;;3.10;;
37205;SDS011;23099;42.636;23.198;2023-01-19T09:39:07;33.08;;;3.10;;
37205;SDS011;23099;42.636;23.198;2023-01-19T09:41:35;20.98;;;2.08;;
37205;SDS011;23099;42.636;23.198;2023-01-19T09:44:05;28.67;;;2.90;;
37205;SDS011;23099;42.636;23.198;2023-01-19T09:46:40;27.50;;;3.40;;
37205;SDS011;23099;42.636;23.198;2023-01-19T09:49:10;26.85;;;3.20;;
37205;SDS011;23099;42.636;23.198;2023-01-19T09:51:39;28.10;;;2.83;;
37205;SDS011;23099;42.636;23.198;2023-01-19T09:54:10;32.72;;;2.83;;
37205;SDS011;23099;42.636;23.198;2023-01-19T09:56:39;25.33;;;2.22;;
37205;SDS011;23099;42.636;23.198;2023-01-19T09:59:18;32.67;;;3.47;;
37205;SDS011;23099;42.636;23.198;2023-01-19T10:02:06;32.72;;;3.15;;
37205;SDS011;23099;42.636;23.198;2023-01-19T10:04:47;28.55;;;2.95;;
37205;SDS011;23099;42.636;23.198;2023-01-19T10:07:27;25.48;;;2.78;;
37205;SDS011;23099;42.636;23.198;2023-01-19T10:10:04;26.83;;;1.63;;
37205;SDS011;23099;42.636;23.198;2023-01-19T10:12:42;24.05;;;2.80;;
37205;SDS011;23099;42.636;23.198;2023-01-19T10:15:21;19.20;;;2.47;;
37205;SDS011;23099;42.636;23.198;2023-01-19T10:18:06;27.80;;;3.67;;
37205;SDS011;23099;42.636;23.198;2023-01-19T10:20:39;25.65;;;2.88;;
37205;SDS011;23099;42.636;23.198;2023-01-19T10:26:06;25.25;;;2.20;;
37205;SDS011;23099;42.636;23.198;2023-01-19T10:28:36;32.30;;;3.60;;
37205;SDS011;23099;42.636;23.198;2023-01-19T10:31:06;26.52;;;3.10;;
37205;SDS011;23099;42.636;23.198;2023-01-19T10:33:34;23.40;;;1.88;;
37205;SDS011;23099;42.636;23.198;2023-01-19T10:36:05;21.58;;;2.22;;
37205;SDS011;23099;42.636;23.198;2023-01-19T10:38:41;25.30;;;2.55;;
37205;SDS011;23099;42.636;23.198;2023-01-19T10:41:10;25.83;;;1.60;;
37205;SDS011;23099;42.636;23.198;2023-01-19T10:43:43;24.50;;;2.13;;
37205;SDS011;23099;42.636;23.198;2023-01-19T10:46:16;25.60;;;2.53;;
37205;SDS011;23099;42.636;23.198;2023-01-19T10:48:50;29.83;;;2.95;;
37205;SDS011;23099;42.636;23.198;2023-01-19T10:51:18;18.45;;;2.50;;
37205;SDS011;23099;42.636;23.198;2023-01-19T10:53:56;20.65;;;1.73;;
37205;SDS011;23099;42.636;23.198;2023-01-19T10:56:28;21.70;;;2.03;;
37205;SDS011;23099;42.636;23.198;2023-01-19T10:58:58;17.73;;;2.47;;
37205;SDS011;23099;42.636;23.198;2023-01-19T11:01:27;20.92;;;2.58;;
37205;SDS011;23099;42.636;23.198;2023-01-19T11:03:55;19.25;;;2.30;;
37205;SDS011;23099;42.636;23.198;2023-01-19T11:06:29;25.40;;;3.92;;
37205;SDS011;23099;42.636;23.198;2023-01-19T11:11:41;22.48;;;2.08;;
37205;SDS011;23099;42.636;23.198;2023-01-19T11:14:11;19.50;;;2.60;;
37205;SDS011;23099;42.636;23.198;2023-01-19T11:16:43;22.52;;;2.53;;
37205;SDS011;23099;42.636;23.198;2023-01-19T11:22:06;23.80;;;2.75;;
37205;SDS011;23099;42.636;23.198;2023-01-19T11:24:40;20.77;;;2.42;;
37205;SDS011;23099;42.636;23.198;2023-01-19T11:27:09;22.40;;;1.45;;
37205;SDS011;23099;42.636;23.198;2023-01-19T11:29:36;22.88;;;2.00;;
37205;SDS011;23099;42.636;23.198;2023-01-19T11:32:10;19.48;;;1.63;;
37205;SDS011;23099;42.636;23.198;2023-01-19T11:34:43;9.45;;;1.40;;
37205;SDS011;23099;42.636;23.198;2023-01-19T11:37:24;21.00;;;1.73;;
37205;SDS011;23099;42.636;23.198;2023-01-19T11:39:54;20.48;;;2.33;;
37205;SDS011;23099;42.636;23.198;2023-01-19T11:42:22;22.83;;;1.98;;
37205;SDS011;23099;42.636;23.198;2023-01-19T11:47:26;13.43;;;1.48;;
37205;SDS011;23099;42.636;23.198;2023-01-19T11:49:57;19.77;;;1.33;;
37205;SDS011;23099;42.636;23.198;2023-01-19T11:52:27;18.88;;;2.10;;
37205;SDS011;23099;42.636;23.198;2023-01-19T11:54:59;19.45;;;1.48;;
37205;SDS011;23099;42.636;23.198;2023-01-19T11:57:31;17.25;;;2.08;;
37205;SDS011;23099;42.636;23.198;2023-01-19T11:59:58;17.63;;;2.28;;
37205;SDS011;23099;42.636;23.198;2023-01-19T12:02:30;15.90;;;1.50;;
37205;SDS011;23099;42.636;23.198;2023-01-19T12:05:10;21.98;;;1.75;;
37205;SDS011;23099;42.636;23.198;2023-01-19T12:07:40;14.02;;;2.03;;
37205;SDS011;23099;42.636;23.198;2023-01-19T12:10:13;20.20;;;2.03;;
37205;SDS011;23099;42.636;23.198;2023-01-19T12:15:17;15.73;;;1.40;;
37205;SDS011;23099;42.636;23.198;2023-01-19T12:17:58;19.02;;;1.58;;
37205;SDS011;23099;42.636;23.198;2023-01-19T12:20:27;14.10;;;1.27;;
37205;SDS011;23099;42.636;23.198;2023-01-19T12:23:00;21.10;;;2.40;;
37205;SDS011;23099;42.636;23.198;2023-01-19T12:25:44;15.25;;;2.00;;
37205;SDS011;23099;42.636;23.198;2023-01-19T12:28:19;17.30;;;2.08;;
37205;SDS011;23099;42.636;23.198;2023-01-19T12:30:51;17.25;;;2.45;;
37205;SDS011;23099;42.636;23.198;2023-01-19T12:33:20;18.90;;;1.60;;
37205;SDS011;23099;42.636;23.198;2023-01-19T12:35:52;13.43;;;1.30;;
37205;SDS011;23099;42.636;23.198;2023-01-19T12:41:20;23.13;;;2.45;;
37205;SDS011;23099;42.636;23.198;2023-01-19T12:46:49;11.88;;;1.35;;
37205;SDS011;23099;42.636;23.198;2023-01-19T12:49:24;11.57;;;1.08;;
37205;SDS011;23099;42.636;23.198;2023-01-19T12:52:07;15.30;;;1.85;;
37205;SDS011;23099;42.636;23.198;2023-01-19T12:54:52;17.75;;;1.40;;
37205;SDS011;23099;42.636;23.198;2023-01-19T12:57:24;18.80;;;2.72;;
37205;SDS011;23099;42.636;23.198;2023-01-19T12:59:55;16.20;;;1.48;;
37205;SDS011;23099;42.636;23.198;2023-01-19T13:02:30;12.27;;;1.40;;
37205;SDS011;23099;42.636;23.198;2023-01-19T13:05:26;15.38;;;2.65;;
37205;SDS011;23099;42.636;23.198;2023-01-19T13:08:17;20.73;;;9.13;;
37205;SDS011;23099;42.636;23.198;2023-01-19T13:13:44;20.08;;;4.57;;
37205;SDS011;23099;42.636;23.198;2023-01-19T13:16:57;13.68;;;2.40;;
37205;SDS011;23099;42.636;23.198;2023-01-19T13:19:41;9.65;;;1.38;;
37205;SDS011;23099;42.636;23.198;2023-01-19T13:25:20;12.77;;;1.77;;
37205;SDS011;23099;42.636;23.198;2023-01-19T13:27:53;21.02;;;3.33;;
37205;SDS011;23099;42.636;23.198;2023-01-19T13:30:20;10.82;;;1.58;;
37205;SDS011;23099;42.636;23.198;2023-01-19T13:32:51;12.73;;;1.50;;
37205;SDS011;23099;42.636;23.198;2023-01-19T13:35:18;11.18;;;1.10;;
37205;SDS011;23099;42.636;23.198;2023-01-19T13:37:46;10.25;;;0.90;;
37205;SDS011;23099;42.636;23.198;2023-01-19T13:40:16;13.97;;;1.03;;
